Time;durP1;ratioP1;P1;durP2;ratioP2;P2;SDS_P1;SDS_P2;PMS_P1;PMS_P2;Temp;Humidity;BMP_temperature;BMP_pressure;BME280_temperature;BME280_humidity;BME280_pressure;Samples;Min_cycle;Max_cycle;Signal;HPM_P1;HPM_P2
2023/08/21 00:00:42;;;;;;;5.97;3.25;;;;;;;19.06;100.00;102206.47;4977903;28;20573;-78
2023/08/21 00:03:07;;;;;;;7.28;3.30;;;;;;;19.03;100.00;102210.91;4977604;28;20030;-78
2023/08/21 00:05:33;;;;;;;7.18;3.78;;;;;;;18.95;100.00;102203.59;4981613;28;20037;-78
2023/08/21 00:07:58;;;;;;;8.95;3.75;;;;;;;18.85;100.00;102205.22;4977260;28;20033;-78
2023/08/21 00:10:24;;;;;;;6.80;3.08;;;;;;;18.87;100.00;102214.16;4990709;28;20022;-78
2023/08/21 00:12:49;;;;;;;5.10;3.03;;;;;;;18.87;100.00;102205.66;4974735;28;20141;-78
2023/08/21 00:15:14;;;;;;;5.22;2.83;;;;;;;18.94;100.00;102204.03;4965613;28;20407;-78
2023/08/21 00:17:40;;;;;;;5.28;2.85;;;;;;;18.88;100.00;102207.25;4979092;28;20088;-78
2023/08/21 00:20:09;;;;;;;10.18;3.88;;;;;;;18.74;100.00;102207.22;4972714;28;21719;-78
2023/08/21 00:22:35;;;;;;;6.88;3.15;;;;;;;18.84;100.00;102205.63;4977058;28;20038;-78
2023/08/21 00:25:00;;;;;;;7.07;3.78;;;;;;;18.77;100.00;102206.41;4976895;28;20018;-79
2023/08/21 00:27:26;;;;;;;9.98;4.00;;;;;;;18.89;100.00;102208.09;4977389;28;20078;-78
2023/08/21 00:29:51;;;;;;;7.90;3.17;;;;;;;18.82;100.00;102208.84;4983752;28;20061;-78
2023/08/21 00:32:16;;;;;;;5.10;3.22;;;;;;;18.88;100.00;102220.63;4986386;28;20041;-78
2023/08/21 00:34:42;;;;;;;6.10;3.28;;;;;;;18.69;100.00;102204.75;4982914;28;20030;-78
2023/08/21 00:37:07;;;;;;;6.03;2.72;;;;;;;18.69;100.00;102211.25;4976711;28;20129;-78
2023/08/21 00:39:33;;;;;;;3.70;3.05;;;;;;;18.57;100.00;102207.97;4979732;28;20026;-78
2023/08/21 00:41:58;;;;;;;5.05;3.08;;;;;;;18.68;100.00;102208.84;4973503;28;20408;-78
2023/08/21 00:44:23;;;;;;;6.43;3.08;;;;;;;18.64;100.00;102210.84;4966484;28;20029;-78
2023/08/21 00:46:49;;;;;;;6.63;2.72;;;;;;;18.60;100.00;102212.84;4976909;28;20148;-78
2023/08/21 00:49:14;;;;;;;5.15;3.15;;;;;;;18.61;100.00;102214.47;4975803;28;20049;-78
2023/08/21 00:51:40;;;;;;;3.75;2.53;;;;;;;18.61;100.00;102208.78;4978973;28;20032;-78
2023/08/21 00:54:05;;;;;;;4.13;2.15;;;;;;;18.55;100.00;102199.91;4970171;28;20076;-78
2023/08/21 00:56:31;;;;;;;6.30;2.28;;;;;;;18.59;100.00;102203.53;4978605;28;20068;-78
2023/08/21 00:58:57;;;;;;;3.35;2.22;;;;;;;18.55;100.00;102205.56;4974728;28;20481;-79
2023/08/21 01:01:27;;;;;;;6.63;2.55;;;;;;;18.48;100.00;102206.31;4977322;28;21323;-79
2023/08/21 01:03:53;;;;;;;4.28;2.00;;;;;;;18.40;100.00;102210.34;4978772;28;20034;-79
2023/08/21 01:06:19;;;;;;;3.20;2.50;;;;;;;18.46;100.00;102207.94;4979669;28;20057;-78
2023/08/21 01:09:08;;;;;;;4.53;2.40;;;;;;;18.49;100.00;102213.63;4976658;28;20521;-78
2023/08/21 01:11:46;;;;;;;2.58;1.40;;;;;;;18.45;100.00;102204.31;4977632;28;20061;-78
2023/08/21 01:14:27;;;;;;;3.90;2.22;;;;;;;18.44;100.00;102216.03;4977904;28;20387;-79
2023/08/21 01:16:57;;;;;;;2.33;1.88;;;;;;;18.34;100.00;102211.16;4979913;28;20045;-78
2023/08/21 01:19:44;;;;;;;2.70;1.88;;;;;;;18.34;100.00;102217.66;4978338;28;20057;-78
2023/08/21 01:22:10;;;;;;;2.95;1.60;;;;;;;18.29;100.00;102220.84;4973101;28;20030;-78
2023/08/21 01:24:35;;;;;;;4.72;1.80;;;;;;;18.30;100.00;102211.16;4991593;28;20033;-78
2023/08/21 01:27:02;;;;;;;3.70;1.80;;;;;;;18.27;100.00;102209.09;4973362;28;20139;-78
2023/08/21 01:29:28;;;;;;;2.58;1.58;;;;;;;18.22;100.00;102210.31;4972342;28;20455;-78
2023/08/21 01:32:01;;;;;;;4.75;1.85;;;;;;;18.14;100.00;102216.34;4989634;28;20097;-78
2023/08/21 01:34:28;;;;;;;2.80;2.25;;;;;;;18.27;100.00;102211.94;4968284;28;20320;-78
2023/08/21 01:36:55;;;;;;;3.30;1.83;;;;;;;18.20;100.00;102212.72;4993232;28;20467;-78
2023/08/21 01:39:20;;;;;;;3.08;2.00;;;;;;;18.22;100.00;102215.97;4975346;28;20026;-78
2023/08/21 01:41:45;;;;;;;5.45;2.00;;;;;;;18.31;100.00;102218.44;4968672;28;20034;-78
2023/08/21 01:44:11;;;;;;;4.43;2.00;;;;;;;18.24;100.00;102226.91;4977769;28;20026;-78
2023/08/21 01:46:36;;;;;;;2.65;1.65;;;;;;;18.26;100.00;102233.81;4978243;28;20647;-78
2023/08/21 01:49:02;;;;;;;4.07;2.03;;;;;;;18.18;100.00;102225.69;4974403;28;20582;-78
2023/08/21 01:51:27;;;;;;;5.38;1.77;;;;;;;18.26;100.00;102221.66;4978567;28;20042;-78
2023/08/21 01:53:52;;;;;;;3.05;1.70;;;;;;;18.06;100.00;102219.13;4975383;28;20030;-78
2023/08/21 01:56:18;;;;;;;3.90;2.55;;;;;;;18.16;100.00;102219.59;4973560;28;20040;-78
2023/08/21 01:58:43;;;;;;;4.97;1.98;;;;;;;18.17;100.00;102224.03;4974725;28;20118;-78
2023/08/21 02:01:08;;;;;;;6.18;2.15;;;;;;;18.06;100.00;102224.78;4973691;28;20578;-78
2023/08/21 02:03:34;;;;;;;4.28;2.08;;;;;;;18.07;100.00;102217.94;4974665;28;20368;-78
2023/08/21 02:05:59;;;;;;;2.72;1.88;;;;;;;18.05;100.00;102219.53;4971320;28;20122;-78
2023/08/21 02:08:31;;;;;;;2.38;1.75;;;;;;;18.07;100.00;102217.94;4977282;28;20166;-78
2023/08/21 02:10:57;;;;;;;2.55;2.35;;;;;;;18.04;100.00;102220.75;4976216;28;20064;-78
2023/08/21 02:13:22;;;;;;;5.20;2.08;;;;;;;18.01;100.00;102222.34;4979203;28;20034;-78
2023/08/21 02:15:47;;;;;;;7.30;1.88;;;;;;;17.98;100.00;102223.16;4977520;28;20530;-78
2023/08/21 02:18:13;;;;;;;5.63;2.28;;;;;;;17.87;100.00;102233.59;4976161;28;20073;-78
2023/08/21 02:20:38;;;;;;;3.15;1.90;;;;;;;17.85;100.00;102236.81;4982227;28;20030;-78
2023/08/21 02:23:04;;;;;;;4.22;2.22;;;;;;;17.94;100.00;102222.31;4977042;28;20491;-78
2023/08/21 02:25:30;;;;;;;2.97;1.92;;;;;;;17.87;100.00;102222.28;4982756;28;20112;-78
2023/08/21 02:27:55;;;;;;;3.53;2.03;;;;;;;17.93;100.00;102222.72;4975505;28;20027;-78
2023/08/21 02:30:24;;;;;;;3.10;1.80;;;;;;;17.93;100.00;102215.03;4984371;28;20026;-78
2023/08/21 02:32:51;;;;;;;3.22;2.10;;;;;;;17.92;100.00;102219.06;4980915;28;20774;-78
2023/08/21 02:35:16;;;;;;;3.92;1.73;;;;;;;17.86;100.00;102223.50;4980608;28;20060;-78
2023/08/21 02:37:41;;;;;;;4.47;1.90;;;;;;;17.80;100.00;102230.72;4974853;28;20496;-78
2023/08/21 02:40:10;;;;;;;3.92;1.77;;;;;;;17.76;100.00;102233.50;4975187;28;20042;-84
2023/08/21 02:42:36;;;;;;;4.45;1.77;;;;;;;17.84;100.00;102229.53;4977422;28;20650;-84
2023/08/21 02:45:07;;;;;;;3.17;1.70;;;;;;;17.81;100.00;102233.13;4973678;28;20105;-84
2023/08/21 02:47:37;;;;;;;5.72;2.08;;;;;;;17.84;100.00;102232.38;4976089;28;20487;-84
2023/08/21 02:50:04;;;;;;;2.85;1.67;;;;;;;17.75;100.00;102231.06;4975086;28;20040;-84
2023/08/21 02:52:30;;;;;;;4.03;1.80;;;;;;;17.70;100.00;102228.63;4974616;28;20542;-84
2023/08/21 02:54:55;;;;;;;5.38;1.90;;;;;;;17.73;100.00;102233.47;4991992;28;20030;-84
2023/08/21 02:57:20;;;;;;;4.00;2.10;;;;;;;17.76;100.00;102227.03;4994528;28;20057;-84
2023/08/21 02:59:46;;;;;;;3.80;2.80;;;;;;;17.70;100.00;102231.44;4990195;28;20030;-83
2023/08/21 03:02:11;;;;;;;5.93;2.10;;;;;;;17.74;100.00;102223.78;4974718;28;20507;-84
2023/08/21 03:04:37;;;;;;;3.72;2.40;;;;;;;17.74;100.00;102232.28;4985758;28;20026;-84
2023/08/21 03:07:02;;;;;;;2.92;2.20;;;;;;;17.68;100.00;102221.31;4974971;28;20388;-84
2023/08/21 03:09:28;;;;;;;5.18;2.30;;;;;;;17.68;100.00;102237.50;4986339;28;20109;-84
2023/08/21 03:11:53;;;;;;;2.47;1.98;;;;;;;17.66;100.00;102237.88;4976722;28;20069;-84
2023/08/21 03:14:18;;;;;;;2.38;1.85;;;;;;;17.65;100.00;102233.44;4973483;28;20042;-84
2023/08/21 03:16:44;;;;;;;2.92;2.25;;;;;;;17.71;100.00;102228.22;4969029;28;20457;-84
2023/08/21 03:19:09;;;;;;;4.28;2.28;;;;;;;17.68;100.00;102231.84;4980313;28;20046;-84
2023/08/21 03:21:34;;;;;;;4.22;1.83;;;;;;;17.68;100.00;102226.16;4974556;28;20041;-84
2023/08/21 03:24:00;;;;;;;4.40;2.03;;;;;;;17.74;100.00;102232.28;4994428;28;20355;-84
2023/08/21 03:26:26;;;;;;;3.70;2.67;;;;;;;17.65;100.00;102216.44;4974652;28;20038;-84
2023/08/21 03:28:51;;;;;;;3.05;1.85;;;;;;;17.60;100.00;102228.16;4969724;28;20043;-84
2023/08/21 03:31:17;;;;;;;3.15;1.75;;;;;;;17.59;100.00;102225.72;4993221;28;20026;-84
2023/08/21 03:33:43;;;;;;;4.45;2.25;;;;;;;17.61;100.00;102221.28;4978717;28;20058;-84
2023/08/21 03:36:08;;;;;;;2.55;2.10;;;;;;;17.54;100.00;102209.91;4973992;28;20041;-83
2023/08/21 03:38:34;;;;;;;3.17;1.92;;;;;;;17.60;100.00;102219.66;4972677;28;20754;-83
2023/08/21 03:40:59;;;;;;;2.83;1.60;;;;;;;17.65;100.00;102215.66;4974826;28;20349;-83
2023/08/21 03:43:25;;;;;;;4.82;2.08;;;;;;;17.61;100.00;102221.28;4979285;28;20026;-83
2023/08/21 03:45:50;;;;;;;3.95;2.40;;;;;;;17.61;100.00;102215.63;4976861;28;20502;-83
2023/08/21 03:48:16;;;;;;;4.60;2.97;;;;;;;17.59;100.00;102212.38;4977433;28;20030;-84
2023/08/21 03:50:41;;;;;;;3.28;2.28;;;;;;;17.62;100.00;102205.09;4970194;28;20399;-84
2023/08/21 03:53:06;;;;;;;2.58;2.22;;;;;;;17.60;100.00;102201.84;4989700;28;20117;-84
2023/08/21 03:55:32;;;;;;;2.47;2.28;;;;;;;17.57;100.00;102203.44;4992310;28;20053;-84
2023/08/21 03:57:57;;;;;;;3.03;2.17;;;;;;;17.51;100.00;102207.84;4980264;28;20026;-84
2023/08/21 04:00:22;;;;;;;3.53;2.38;;;;;;;17.51;100.00;102207.06;4971422;28;20121;-84
2023/08/21 04:02:48;;;;;;;4.32;2.33;;;;;;;17.49;100.00;102207.44;4977420;28;20049;-84
2023/08/21 04:05:13;;;;;;;3.38;2.58;;;;;;;17.40;100.00;102204.16;4983987;28;20026;-84
2023/08/21 04:07:39;;;;;;;3.53;2.30;;;;;;;17.43;100.00;102211.84;4977292;28;20038;-84
2023/08/21 04:10:05;;;;;;;3.90;2.38;;;;;;;17.23;100.00;102211.28;4994102;28;20027;-84
2023/08/21 04:12:31;;;;;;;6.40;2.90;;;;;;;17.27;100.00;102215.78;4981809;28;20080;-84
2023/08/21 04:14:56;;;;;;;3.97;2.55;;;;;;;17.39;100.00;102211.00;4965432;28;20058;-84
2023/08/21 04:17:22;;;;;;;3.95;2.53;;;;;;;17.32;100.00;102208.94;4953790;28;20108;-84
2023/08/21 04:19:48;;;;;;;3.22;2.38;;;;;;;17.25;100.00;102209.69;4950653;28;20030;-84
2023/08/21 04:22:14;;;;;;;3.53;2.28;;;;;;;17.35;100.00;102221.47;4985167;28;20033;-84
2023/08/21 04:24:40;;;;;;;4.47;2.63;;;;;;;17.32;100.00;102213.78;5003571;28;20054;-84
2023/08/21 04:27:05;;;;;;;6.65;3.10;;;;;;;17.33;100.00;102221.91;4984971;28;20049;-85
2023/08/21 04:29:31;;;;;;;3.95;3.08;;;;;;;17.23;100.00;102222.63;4984435;28;20030;-84
2023/08/21 04:31:56;;;;;;;5.30;2.40;;;;;;;17.26;100.00;102214.13;4986623;28;20060;-85
2023/08/21 04:34:21;;;;;;;3.05;2.53;;;;;;;17.35;100.00;102227.13;4985524;28;20081;-85
2023/08/21 04:36:49;;;;;;;3.33;2.60;;;;;;;17.23;100.00;102225.44;4983158;28;20125;-85
2023/08/21 04:39:14;;;;;;;4.32;2.78;;;;;;;17.24;100.00;102227.88;4979507;28;20041;-85
2023/08/21 04:41:42;;;;;;;4.32;2.42;;;;;;;17.27;100.00;102235.59;4981371;28;20042;-85
2023/08/21 04:44:07;;;;;;;4.45;2.20;;;;;;;17.35;100.00;102224.31;4980207;28;20069;-85
2023/08/21 04:46:32;;;;;;;4.25;3.33;;;;;;;17.26;100.00;102222.63;4997730;28;20112;-85
2023/08/21 04:48:58;;;;;;;5.05;3.28;;;;;;;17.25;100.00;102220.22;4975011;28;20029;-85
2023/08/21 04:51:24;;;;;;;4.05;2.67;;;;;;;17.23;100.00;102229.06;4995055;28;20054;-85
2023/08/21 04:53:49;;;;;;;3.35;2.70;;;;;;;17.22;100.00;102221.81;4975712;28;20026;-85
2023/08/21 04:56:15;;;;;;;6.63;3.35;;;;;;;17.26;100.00;102222.63;4981744;28;20026;-85
2023/08/21 04:58:40;;;;;;;4.57;3.30;;;;;;;17.20;100.00;102218.56;4976463;28;20107;-85
2023/08/21 05:01:05;;;;;;;3.55;2.47;;;;;;;17.21;100.00;102220.16;4976758;28;20038;-85
2023/08/21 05:03:31;;;;;;;5.10;2.80;;;;;;;17.19;100.00;102221.78;4993077;28;20908;-85
2023/08/21 05:05:56;;;;;;;4.05;2.70;;;;;;;17.12;100.00;102219.69;4979451;28;20048;-85
2023/08/21 05:08:26;;;;;;;3.30;2.70;;;;;;;17.25;100.00;102223.03;4980102;28;20550;-85
2023/08/21 05:11:01;;;;;;;6.93;3.90;;;;;;;17.14;100.00;102217.28;4976369;28;20080;-85
2023/08/21 05:13:27;;;;;;;6.05;3.25;;;;;;;17.14;100.00;102224.94;4994527;28;20049;-85
2023/08/21 05:15:57;;;;;;;4.03;3.08;;;;;;;17.21;100.00;102225.81;4978337;28;20051;-85
2023/08/21 05:18:24;;;;;;;5.75;3.33;;;;;;;17.24;100.00;102235.53;4973652;28;20041;-85
2023/08/21 05:20:50;;;;;;;4.18;2.75;;;;;;;17.24;100.00;102227.88;4978528;28;20050;-85
2023/08/21 05:23:16;;;;;;;3.92;2.50;;;;;;;17.21;100.00;102236.34;4983654;28;20413;-85
2023/08/21 05:25:43;;;;;;;4.97;3.70;;;;;;;17.12;100.00;102227.34;4988336;28;20035;-85
2023/08/21 05:28:08;;;;;;;6.15;3.30;;;;;;;17.22;100.00;102232.28;4973634;28;20034;-85
2023/08/21 05:30:36;;;;;;;4.68;3.75;;;;;;;17.36;100.00;102238.06;4975897;28;20522;-85
2023/08/21 05:33:02;;;;;;;5.22;4.20;;;;;;;17.30;100.00;102244.50;4993288;28;20026;-85
2023/08/21 05:35:27;;;;;;;6.95;3.40;;;;;;;17.27;100.00;102235.59;4976295;28;20041;-85
2023/08/21 05:37:52;;;;;;;7.10;3.53;;;;;;;17.30;100.00;102244.50;4978837;28;20030;-84
2023/08/21 05:40:18;;;;;;;5.30;2.70;;;;;;;17.36;100.00;102242.94;4973989;28;20030;-85
2023/08/21 05:42:44;;;;;;;7.95;3.20;;;;;;;17.45;100.00;102246.22;4977993;28;20098;-85
2023/08/21 05:45:09;;;;;;;3.60;2.92;;;;;;;17.53;100.00;102256.41;4978985;28;20026;-84
2023/08/21 05:47:34;;;;;;;6.95;2.92;;;;;;;17.55;100.00;102254.00;4993982;28;20038;-85
2023/08/21 05:50:00;;;;;;;3.97;2.78;;;;;;;17.59;100.00;102252.00;4980552;28;20020;-84
2023/08/21 05:52:25;;;;;;;5.93;3.17;;;;;;;17.62;100.00;102250.41;4996561;28;20038;-84
2023/08/21 05:54:51;;;;;;;8.55;4.03;;;;;;;17.60;100.00;102253.63;4976713;28;20771;-84
2023/08/21 05:57:16;;;;;;;7.70;3.67;;;;;;;17.67;100.00;102248.03;4978683;28;20022;-85
2023/08/21 05:59:46;;;;;;;7.97;3.95;;;;;;;17.76;100.00;102261.81;4977337;28;20403;-84
2023/08/21 06:02:12;;;;;;;6.88;3.72;;;;;;;17.80;100.00;102261.84;4978991;28;20089;-84
2023/08/21 06:04:40;;;;;;;12.02;4.28;;;;;;;17.81;100.00;102258.59;4994066;28;20045;-84
2023/08/21 06:07:06;;;;;;;4.25;3.25;;;;;;;17.81;100.00;102258.59;4963572;28;20051;-84
2023/08/21 06:09:33;;;;;;;8.50;3.92;;;;;;;17.89;100.00;102262.34;4966596;28;20400;-84
2023/08/21 06:12:00;;;;;;;4.20;3.50;;;;;;;17.77;100.00;102262.63;4970668;28;21589;-84
2023/08/21 06:14:28;;;;;;;11.75;4.43;;;;;;;17.83;100.00;102261.09;4990603;28;20022;-84
2023/08/21 06:16:59;;;;;;;4.85;3.10;;;;;;;17.86;100.00;102248.97;4996642;28;20066;-84
2023/08/21 06:19:24;;;;;;;10.50;5.10;;;;;;;17.96;100.00;102253.91;4973038;28;20398;-84
2023/08/21 06:21:51;;;;;;;6.22;3.55;;;;;;;17.90;100.00;102255.47;4977807;28;20031;-84
2023/08/21 06:24:16;;;;;;;5.13;2.42;;;;;;;18.02;100.00;102262.81;4991405;28;20108;-84
2023/08/21 06:26:42;;;;;;;4.15;2.50;;;;;;;18.13;100.00;102262.88;4973024;28;20170;-84
2023/08/21 06:29:07;;;;;;;10.27;4.85;;;;;;;18.16;100.00;102247.94;4981731;28;20152;-83
2023/08/21 06:31:33;;;;;;;3.42;2.50;;;;;;;18.01;100.00;102256.34;4984384;28;20551;-84
2023/08/21 06:33:58;;;;;;;10.00;3.75;;;;;;;18.10;100.00;102258.00;4982362;28;20034;-84
2023/08/21 06:36:24;;;;;;;7.18;4.47;;;;;;;18.01;100.00;102253.50;4981112;28;20026;-84
2023/08/21 06:38:49;;;;;;;9.15;4.97;;;;;;;17.94;100.00;102252.66;4970574;28;20104;-84
2023/08/21 06:41:14;;;;;;;6.38;4.22;;;;;;;17.86;100.00;102248.97;4980757;28;20026;-84
2023/08/21 06:43:41;;;;;;;10.20;5.00;;;;;;;17.87;100.00;102256.25;4976484;28;20034;-84
2023/08/21 06:46:07;;;;;;;11.52;4.57;;;;;;;17.97;100.00;102254.72;4973061;28;20030;-84
2023/08/21 06:48:32;;;;;;;2.38;1.50;;;;;;;18.39;100.00;102254.09;4974811;28;20371;-81
2023/08/21 06:50:57;;;;;;;4.30;2.78;;;;;;;19.76;100.00;102257.16;4973859;28;20110;-81
2023/08/21 06:53:24;;;;;;;3.08;1.98;;;;;;;20.86;100.00;102257.97;4977068;28;20065;-81
2023/08/21 06:55:49;;;;;;;5.63;2.28;;;;;;;21.35;100.00;102277.94;4968129;28;20076;-81
2023/08/21 06:58:15;;;;;;;5.22;3.63;;;;;;;20.73;100.00;102269.00;4971095;28;20572;-81
2023/08/21 07:00:40;;;;;;;4.70;3.88;;;;;;;19.14;100.00;102259.16;4973826;28;20030;-81
2023/08/21 07:03:07;;;;;;;8.85;3.38;;;;;;;19.90;100.00;102265.63;4975894;28;20033;-82
2023/08/21 07:05:33;;;;;;;9.15;2.92;;;;;;;20.72;100.00;102270.22;4981094;28;20085;-87
2023/08/21 07:07:59;;;;;;;4.45;2.92;;;;;;;21.19;100.00;102269.91;4976434;28;20030;-88
2023/08/21 07:10:25;;;;;;;4.22;2.60;;;;;;;20.78;100.00;102265.72;4981717;28;20382;-88
2023/08/21 07:12:50;;;;;;;9.38;2.80;;;;;;;20.51;100.00;102265.41;4997748;28;20034;-88
2023/08/21 07:15:16;;;;;;;2.63;2.08;;;;;;;20.83;100.00;102259.59;4974720;28;20046;-87
2023/08/21 07:17:41;;;;;;;6.35;2.60;;;;;;;21.29;100.00;102252.78;4980605;28;20049;-88
2023/08/21 07:20:07;;;;;;;4.85;2.60;;;;;;;21.51;100.00;102276.19;4972793;28;20066;-88
2023/08/21 07:22:33;;;;;;;4.45;1.85;;;;;;;21.54;100.00;102268.03;4982501;28;20530;-88
2023/08/21 07:25:00;;;;;;;6.75;1.85;;;;;;;21.25;100.00;102269.06;4980853;28;20058;-88
2023/08/21 07:27:26;;;;;;;6.57;1.98;;;;;;;21.34;100.00;102256.41;4988179;28;20022;-88
2023/08/21 07:29:51;;;;;;;3.75;2.50;;;;;;;21.15;100.00;102269.97;4997975;28;20517;-88
2023/08/21 07:32:17;;;;;;;6.97;2.58;;;;;;;20.59;100.00;102252.00;4987650;28;20022;-88
2023/08/21 07:34:42;;;;;;;4.35;2.40;;;;;;;20.61;100.00;102266.63;4995923;28;20029;-89
2023/08/21 07:37:11;;;;;;;10.45;3.25;;;;;;;21.61;100.00;102268.78;4981997;28;20582;-87
2023/08/21 07:39:37;;;;;;;4.97;2.53;;;;;;;21.92;100.00;102271.72;4996231;28;20121;-87
2023/08/21 07:42:02;;;;;;;8.13;2.53;;;;;;;21.05;100.00;102271.66;4992158;28;20077;-87
2023/08/21 07:44:28;;;;;;;6.07;2.13;;;;;;;21.03;100.00;102270.44;4979563;28;20035;-88
2023/08/21 07:46:53;;;;;;;8.13;2.42;;;;;;;21.52;100.00;102257.06;4989745;28;20041;-88
2023/08/21 07:49:18;;;;;;;3.17;2.30;;;;;;;21.74;100.00;102268.28;4984404;28;20448;-89
2023/08/21 07:51:44;;;;;;;6.40;2.65;;;;;;;21.53;100.00;102267.25;4985591;28;20042;-88
2023/08/21 07:54:09;;;;;;;5.20;1.75;;;;;;;21.00;100.00;102266.41;4986179;28;20080;-88
2023/08/21 07:56:35;;;;;;;7.22;1.95;;;;;;;21.50;100.00;102279.47;4985459;28;20034;-87
2023/08/21 07:59:02;;;;;;;6.85;1.70;;;;;;;21.87;100.00;102275.06;5003155;28;20418;-87
2023/08/21 08:01:29;;;;;;;8.18;2.15;;;;;;;21.62;100.00;102270.41;4983585;28;20030;-86
2023/08/21 08:03:55;;;;;;;5.07;1.80;;;;;;;22.02;100.00;102267.97;4994040;28;20030;-87
2023/08/21 08:06:20;;;;;;;6.45;1.60;;;;;;;22.21;98.53;102277.13;5008855;28;20117;-86
2023/08/21 08:08:46;;;;;;;5.18;2.00;;;;;;;22.22;97.14;102279.56;4985493;28;20046;-88
2023/08/21 08:11:12;;;;;;;7.25;2.00;;;;;;;22.19;97.17;102285.28;4987264;28;20022;-87
2023/08/21 08:13:37;;;;;;;8.68;3.40;;;;;;;22.26;96.78;102276.66;4985415;28;20021;-87
2023/08/21 08:16:03;;;;;;;6.38;1.80;;;;;;;22.25;96.40;102277.91;4992115;28;20069;-88
2023/08/21 08:18:28;;;;;;;4.43;1.50;;;;;;;22.00;97.42;102267.56;4986518;28;20034;-88
2023/08/21 08:20:54;;;;;;;6.43;1.75;;;;;;;21.75;91.99;102278.44;4985651;28;20046;-87
2023/08/21 08:23:20;;;;;;;2.97;1.60;;;;;;;21.85;96.21;102277.50;4989814;28;20039;-86
2023/08/21 08:25:47;;;;;;;6.32;1.70;;;;;;;22.26;93.55;102282.38;4987010;28;20098;-85
2023/08/21 08:28:12;;;;;;;4.05;1.73;;;;;;;22.30;93.58;102291.69;4987889;28;20022;-86
2023/08/21 08:30:37;;;;;;;8.63;2.22;;;;;;;21.98;94.11;102272.09;4986519;28;20240;-86
2023/08/21 08:33:03;;;;;;;5.60;1.73;;;;;;;22.16;93.19;102286.13;4988005;28;20038;-87
2023/08/21 08:35:28;;;;;;;7.38;2.65;;;;;;;22.09;93.18;102276.44;4990529;28;20022;-88
2023/08/21 08:37:54;;;;;;;10.23;1.85;;;;;;;22.36;92.51;102295.72;4991935;28;20038;-87
2023/08/21 08:40:20;;;;;;;6.25;1.92;;;;;;;22.16;90.97;102272.69;5005827;28;20181;-86
2023/08/21 08:42:45;;;;;;;6.80;1.80;;;;;;;22.20;91.87;102282.03;4989533;28;20114;-86
2023/08/21 08:45:14;;;;;;;3.83;1.90;;;;;;;22.21;90.95;102277.13;4983868;28;20129;-86
2023/08/21 08:47:41;;;;;;;4.85;1.83;;;;;;;22.22;90.45;102276.72;4988374;28;20070;-87
2023/08/21 08:50:08;;;;;;;5.45;1.48;;;;;;;22.55;89.28;102291.38;4987379;28;20050;-86
2023/08/21 08:52:39;;;;;;;7.18;2.63;;;;;;;21.83;88.81;102277.13;4984036;28;20046;-85
2023/08/21 08:55:06;;;;;;;7.45;1.77;;;;;;;21.32;90.46;102279.59;4991908;28;20794;-86
2023/08/21 08:57:33;;;;;;;4.60;1.65;;;;;;;21.93;93.53;102291.25;4989687;28;20117;-86
2023/08/21 08:59:59;;;;;;;6.00;2.05;;;;;;;21.91;92.64;102293.72;4984958;28;20039;-87
2023/08/21 09:02:34;;;;;;;5.35;1.63;;;;;;;22.04;89.44;102288.31;4999388;28;20042;-87
2023/08/21 09:04:59;;;;;;;7.35;1.67;;;;;;;22.40;92.60;102285.06;4985654;28;20384;-87
2023/08/21 09:07:25;;;;;;;3.92;1.55;;;;;;;22.35;91.68;102294.09;4980439;28;20077;-87
2023/08/21 09:09:52;;;;;;;6.50;1.85;;;;;;;22.03;86.15;102286.69;4977651;28;20026;-87
2023/08/21 09:12:18;;;;;;;8.25;1.58;;;;;;;22.27;85.84;102281.97;4979876;28;20415;-86
2023/08/21 09:14:45;;;;;;;3.53;1.30;;;;;;;22.51;89.73;102288.56;4983946;28;20026;-85
2023/08/21 09:17:11;;;;;;;4.85;2.55;;;;;;;22.47;88.58;102289.88;4981528;28;20043;-86
2023/08/21 09:19:37;;;;;;;8.95;1.83;;;;;;;22.07;84.01;102283.78;4986941;28;20037;-85
2023/08/21 09:22:14;;;;;;;5.80;1.75;;;;;;;22.25;86.14;102284.44;4989854;28;20034;-86
2023/08/21 09:24:41;;;;;;;5.40;1.73;;;;;;;22.28;80.11;102289.28;4987803;28;20510;-86
2023/08/21 09:27:16;;;;;;;2.25;1.35;;;;;;;22.41;84.89;102291.56;4987344;28;20026;-85
2023/08/21 09:29:42;;;;;;;3.33;1.52;;;;;;;22.63;81.98;102286.41;4984016;28;20022;-85
2023/08/21 09:32:08;;;;;;;4.25;1.40;;;;;;;22.57;79.32;102288.13;4999202;28;20050;-85
2023/08/21 09:34:36;;;;;;;5.05;1.35;;;;;;;22.58;86.09;102290.56;4982314;28;20054;-86
2023/08/21 09:37:05;;;;;;;5.90;2.75;;;;;;;22.79;85.06;102280.88;4986213;28;20082;-86
2023/08/21 09:39:35;;;;;;;3.33;1.50;;;;;;;22.53;83.95;102279.59;4981063;28;20058;-85
2023/08/21 09:42:01;;;;;;;4.22;1.52;;;;;;;22.73;88.69;102276.91;4982279;28;20089;-86
2023/08/21 09:44:27;;;;;;;4.07;1.45;;;;;;;22.82;86.90;102276.38;4983381;28;20494;-86
2023/08/21 09:46:53;;;;;;;6.25;2.40;;;;;;;22.57;83.82;102279.56;4986030;28;20031;-86
2023/08/21 09:49:21;;;;;;;6.85;2.25;;;;;;;22.91;86.36;102268.84;4983917;28;20478;-86
2023/08/21 09:51:47;;;;;;;2.95;1.70;;;;;;;23.11;84.08;102280.44;4982151;28;20021;-86
2023/08/21 09:54:13;;;;;;;5.90;1.63;;;;;;;23.05;88.15;102273.59;4989994;28;20105;-86
2023/08/21 09:56:39;;;;;;;6.25;1.58;;;;;;;22.58;84.86;102273.44;4980941;28;20128;-86
2023/08/21 09:59:05;;;;;;;6.63;1.80;;;;;;;22.80;86.74;102261.72;4983122;28;20287;-86
2023/08/21 10:01:33;;;;;;;4.68;2.13;;;;;;;22.83;83.33;102272.25;4977944;28;20034;-85
2023/08/21 10:04:02;;;;;;;7.50;2.13;;;;;;;23.01;87.75;102260.63;4979437;28;20574;-86
2023/08/21 10:06:29;;;;;;;4.20;1.38;;;;;;;23.05;84.03;102264.22;4982040;28;20123;-87
2023/08/21 10:08:56;;;;;;;5.38;1.48;;;;;;;23.04;75.96;102272.00;4985749;28;20676;-87
2023/08/21 10:11:22;;;;;;;4.20;1.38;;;;;;;23.17;82.19;102269.34;4993228;28;20142;-85
2023/08/21 10:13:50;;;;;;;1.85;1.08;;;;;;;23.10;75.91;102266.56;4976346;28;20040;-86
2023/08/21 10:16:17;;;;;;;4.95;1.60;;;;;;;23.05;77.21;102261.38;4982914;28;20598;-86
2023/08/21 10:18:45;;;;;;;4.32;1.27;;;;;;;23.26;77.73;102255.31;4976795;28;20550;-87
2023/08/21 10:21:22;;;;;;;6.25;1.35;;;;;;;23.73;79.41;102261.00;4974810;28;20482;-86
2023/08/21 10:23:49;;;;;;;4.93;1.67;;;;;;;23.47;75.97;102256.19;4999649;28;20037;-85
2023/08/21 10:26:14;;;;;;;2.80;1.02;;;;;;;23.60;79.24;102260.03;4982198;28;20041;-86
2023/08/21 10:28:53;;;;;;;5.70;1.55;;;;;;;23.50;83.83;102247.53;4978554;28;20038;-86
2023/08/21 10:31:29;;;;;;;4.43;1.77;;;;;;;23.75;74.08;102255.66;4980943;28;20030;-85
2023/08/21 10:33:55;;;;;;;4.72;1.13;;;;;;;23.75;78.25;102249.94;4977555;28;20038;-85
2023/08/21 10:36:42;;;;;;;3.72;1.33;;;;;;;23.89;77.57;102253.81;4984540;28;20097;-85
2023/08/21 10:39:17;;;;;;;3.70;1.80;;;;;;;23.74;77.34;102251.19;4981209;28;20088;-85
2023/08/21 10:42:09;;;;;;;4.05;1.27;;;;;;;23.31;80.83;102257.66;4980446;28;20027;-85
2023/08/21 10:44:55;;;;;;;4.22;1.40;;;;;;;23.48;80.39;102252.06;4975735;28;20126;-85
2023/08/21 10:47:27;;;;;;;2.55;1.23;;;;;;;23.85;75.55;102255.94;4993834;28;20039;-87
2023/08/21 10:49:54;;;;;;;6.03;2.40;;;;;;;24.04;80.51;102258.00;4983182;28;20509;-87
2023/08/21 10:52:25;;;;;;;4.47;1.23;;;;;;;24.09;85.06;102250.97;4979904;28;20041;-88
2023/08/21 10:54:59;;;;;;;3.90;1.40;;;;;;;23.92;75.28;102256.59;4978591;28;20030;-88
2023/08/21 10:57:25;;;;;;;3.60;1.63;;;;;;;23.57;87.77;102266.63;4982118;28;20045;-87
2023/08/21 10:59:56;;;;;;;2.80;1.30;;;;;;;23.92;81.03;102261.50;4977550;28;20042;-88
2023/08/21 11:02:23;;;;;;;4.47;1.45;;;;;;;24.01;79.73;102258.88;4985681;28;20042;-88
2023/08/21 11:04:50;;;;;;;3.90;1.38;;;;;;;24.14;82.68;102262.72;4984294;28;20022;-87
2023/08/21 11:07:15;;;;;;;3.97;1.80;;;;;;;24.32;76.48;102268.03;4984502;28;20041;-87
2023/08/21 11:09:41;;;;;;;4.78;1.45;;;;;;;23.85;76.39;102267.38;4977353;28;20030;-90
2023/08/21 11:12:12;;;;;;;4.00;1.38;;;;;;;23.69;76.30;102263.13;4981718;28;20418;-88
2023/08/21 11:14:37;;;;;;;3.42;1.38;;;;;;;23.98;84.31;102262.63;4981436;28;20089;-86
2023/08/21 11:17:03;;;;;;;2.10;1.58;;;;;;;24.31;73.98;102259.91;4984462;28;20034;-89